createdAt,value
2023-04-02T00:00:10.918Z,0.93
2023-04-02T00:03:22.194Z,0.80
2023-04-02T00:06:33.002Z,1.33
2023-04-02T00:09:38.832Z,1.48
2023-04-02T00:12:59.917Z,2.60
2023-04-02T00:16:06.681Z,2.22
2023-04-02T00:19:17.320Z,1.63
2023-04-02T00:22:25.258Z,1.40
2023-04-02T00:25:43.003Z,0.85
2023-04-02T00:28:45.646Z,1.63
2023-04-02T00:31:53.872Z,1.63
2023-04-02T00:34:57.728Z,2.23
2023-04-02T00:38:00.367Z,2.03
2023-04-02T00:41:05.387Z,1.02
2023-04-02T00:44:12.753Z,0.95
2023-04-02T00:47:22.789Z,0.95
2023-04-02T00:50:32.815Z,0.90
2023-04-02T00:53:36.076Z,1.00
2023-04-02T00:56:42.720Z,0.85
2023-04-02T00:59:51.717Z,0.63
2023-04-02T01:03:14.082Z,3.30
2023-04-02T01:06:18.884Z,0.47
2023-04-02T01:09:27.268Z,0.50
2023-04-02T01:12:35.542Z,1.58
2023-04-02T01:15:50.827Z,0.82
2023-04-02T01:19:39.256Z,0.57
2023-04-02T01:22:56.691Z,0.50
2023-04-02T01:26:17.714Z,0.40
2023-04-02T01:29:23.833Z,0.50
2023-04-02T01:32:30.272Z,0.98
2023-04-02T01:35:38.912Z,0.60
2023-04-02T01:38:48.589Z,0.43
2023-04-02T01:42:19.475Z,0.73
2023-04-02T01:45:23.683Z,0.73
2023-04-02T01:48:30.227Z,0.50
2023-04-02T01:51:34.762Z,0.40
2023-04-02T01:54:41.854Z,0.47
2023-04-02T01:57:48.909Z,1.00
2023-04-02T02:00:57.925Z,0.57
2023-04-02T02:04:02.533Z,0.57
2023-04-02T02:07:05.553Z,0.73
2023-04-02T02:10:15.749Z,1.27
2023-04-02T02:13:18.464Z,0.40
2023-04-02T02:16:21.741Z,0.57
2023-04-02T02:19:53.331Z,0.60
2023-04-02T02:22:57.738Z,0.90
2023-04-02T02:26:00.536Z,0.90
2023-04-02T02:29:07.742Z,0.30
2023-04-02T02:32:12.279Z,0.63
2023-04-02T02:35:21.884Z,0.50
2023-04-02T02:38:34.700Z,0.50
2023-04-02T02:41:49.843Z,0.60
2023-04-02T02:44:55.911Z,0.90
2023-04-02T02:47:59.724Z,0.55
2023-04-02T02:51:09.358Z,1.02
2023-04-02T02:54:13.797Z,0.77
2023-04-02T02:57:23.228Z,0.77
2023-04-02T03:00:27.562Z,0.80
2023-04-02T03:03:34.471Z,0.77
2023-04-02T03:06:40.909Z,0.57
2023-04-02T03:10:13.851Z,0.82
2023-04-02T03:13:35.714Z,0.87
2023-04-02T03:16:49.186Z,0.67
2023-04-02T03:20:01.732Z,1.10
2023-04-02T03:23:27.338Z,1.17
2023-04-02T03:26:35.835Z,0.55
2023-04-02T03:30:02.900Z,0.47
2023-04-02T03:33:34.711Z,0.90
2023-04-02T03:36:47.780Z,0.60
2023-04-02T03:40:18.664Z,0.63
2023-04-02T03:43:32.274Z,0.73
2023-04-02T03:46:42.306Z,2.03
2023-04-02T03:50:00.503Z,0.60
2023-04-02T03:53:04.993Z,1.05
2023-04-02T03:56:27.473Z,1.17
2023-04-02T03:59:40.098Z,1.23
2023-04-02T04:02:47.773Z,2.20
2023-04-02T04:06:12.140Z,0.77
2023-04-02T04:09:30.428Z,1.60
2023-04-02T04:12:46.451Z,1.10
2023-04-02T04:15:58.008Z,1.52
2023-04-02T04:19:10.913Z,1.20
2023-04-02T04:22:30.408Z,1.80
2023-04-02T04:25:40.298Z,0.82
2023-04-02T04:28:58.542Z,1.42
2023-04-02T04:32:18.131Z,1.92
2023-04-02T04:35:29.582Z,1.83
2023-04-02T04:38:35.650Z,1.80
2023-04-02T04:41:40.422Z,1.58
2023-04-02T04:45:16.662Z,1.33
2023-04-02T04:48:26.886Z,2.67
2023-04-02T04:51:39.510Z,1.60
2023-04-02T04:54:42.829Z,1.40
2023-04-02T04:57:50.827Z,1.77
2023-04-02T05:01:02.162Z,1.05
2023-04-02T05:04:16.833Z,1.65
2023-04-02T05:07:26.482Z,1.57
2023-04-02T05:10:40.670Z,1.30
2023-04-02T05:13:57.295Z,1.60
2023-04-02T05:17:29.715Z,1.65
2023-04-02T05:20:37.793Z,1.00
2023-04-02T05:23:51.719Z,2.10
2023-04-02T05:27:05.481Z,1.80
2023-04-02T05:30:34.393Z,0.90
2023-04-02T05:33:39.442Z,1.10
2023-04-02T05:36:46.791Z,2.03
2023-04-02T05:39:55.036Z,1.30
2023-04-02T05:43:01.319Z,1.27
2023-04-02T05:46:14.131Z,1.23
2023-04-02T05:49:28.329Z,1.13
2023-04-02T05:52:37.081Z,1.45
2023-04-02T05:55:52.146Z,1.10
2023-04-02T05:59:11.862Z,1.23
2023-04-02T06:02:25.192Z,0.95
2023-04-02T06:05:36.678Z,1.33
2023-04-02T06:08:47.622Z,1.02
2023-04-02T06:11:58.462Z,2.10
2023-04-02T06:15:01.326Z,1.50
2023-04-02T06:18:08.969Z,0.75
2023-04-02T06:21:17.572Z,1.42
2023-04-02T06:24:26.178Z,1.38
2023-04-02T06:27:29.421Z,1.47
2023-04-02T06:30:37.039Z,1.50
2023-04-02T06:33:40.782Z,3.47
2023-04-02T06:36:45.518Z,1.10
2023-04-02T06:39:53.198Z,1.70
2023-04-02T06:42:59.885Z,1.30
2023-04-02T06:46:35.986Z,1.73
2023-04-02T06:49:56.858Z,1.70
2023-04-02T06:53:08.427Z,1.00
2023-04-02T06:56:28.791Z,1.08
2023-04-02T06:59:31.782Z,3.23
2023-04-02T07:02:39.930Z,1.47
2023-04-02T07:05:45.913Z,1.10
2023-04-02T07:08:49.349Z,2.15
2023-04-02T07:11:52.887Z,1.98
2023-04-02T07:14:56.358Z,3.03
2023-04-02T07:18:00.318Z,1.90
2023-04-02T07:21:04.053Z,1.88
2023-04-02T07:24:07.122Z,2.58
2023-04-02T07:27:11.521Z,2.20
2023-04-02T07:30:14.259Z,2.30
2023-04-02T07:33:19.034Z,1.23
2023-04-02T07:36:23.816Z,2.10
2023-04-02T07:39:26.443Z,2.05
2023-04-02T07:42:28.998Z,2.08
2023-04-02T07:45:31.580Z,1.53
2023-04-02T07:48:34.178Z,1.70
2023-04-02T07:51:37.604Z,1.33
2023-04-02T07:54:40.495Z,1.92
2023-04-02T07:57:55.112Z,2.70
2023-04-02T08:00:57.894Z,2.43
2023-04-02T08:04:01.414Z,1.83
2023-04-02T08:07:03.929Z,2.40
2023-04-02T08:10:08.012Z,3.08
2023-04-02T08:13:10.691Z,1.92
2023-04-02T08:16:13.290Z,2.03
2023-04-02T08:19:16.210Z,2.23
2023-04-02T08:22:18.719Z,2.85
2023-04-02T08:25:21.168Z,3.30
2023-04-02T08:28:23.747Z,2.25
2023-04-02T08:31:26.356Z,2.20
2023-04-02T08:34:28.994Z,2.00
2023-04-02T08:37:31.650Z,2.30
2023-04-02T08:40:41.198Z,2.13
2023-04-02T08:44:36.752Z,2.47
2023-04-02T08:47:41.248Z,2.23
2023-04-02T08:50:45.903Z,1.60
2023-04-02T08:53:49.394Z,1.45
2023-04-02T08:56:58.362Z,1.38
2023-04-02T09:00:25.742Z,2.00
2023-04-02T09:03:32.247Z,4.40
2023-04-02T09:06:35.174Z,2.33
2023-04-02T09:09:38.895Z,2.00
2023-04-02T09:12:43.764Z,2.25
2023-04-02T09:15:47.520Z,1.60
2023-04-02T09:18:52.767Z,2.83
2023-04-02T09:22:03.840Z,1.60
2023-04-02T09:25:14.359Z,1.85
2023-04-02T09:28:23.695Z,1.77
2023-04-02T09:31:40.283Z,1.73
2023-04-02T09:34:42.934Z,3.57
2023-04-02T09:37:45.984Z,2.10
2023-04-02T09:41:03.665Z,1.70
2023-04-02T09:44:27.187Z,1.75
2023-04-02T09:47:32.249Z,2.20
2023-04-02T09:50:34.967Z,1.67
2023-04-02T09:53:49.494Z,1.60
2023-04-02T09:57:02.240Z,1.55
2023-04-02T10:00:29.916Z,1.55
2023-04-02T10:03:35.117Z,2.83
2023-04-02T10:06:49.730Z,1.43
2023-04-02T10:10:02.852Z,2.47
2023-04-02T10:13:33.848Z,1.65
2023-04-02T10:16:41.611Z,2.78
2023-04-02T10:19:50.300Z,1.60
2023-04-02T10:22:52.870Z,1.97
2023-04-02T10:26:21.379Z,4.13
2023-04-02T10:30:05.557Z,1.48
2023-04-02T10:33:22.688Z,1.50
2023-04-02T10:36:43.267Z,2.53
2023-04-02T10:39:57.656Z,1.40
2023-04-02T10:43:45.713Z,1.80
2023-04-02T10:47:00.454Z,3.05
2023-04-02T10:50:29.587Z,1.92
2023-04-02T10:53:43.563Z,3.17
2023-04-02T10:56:50.997Z,1.80
2023-04-02T11:00:20.626Z,2.00
2023-04-02T11:03:41.677Z,1.98
2023-04-02T11:06:51.811Z,2.40
2023-04-02T11:09:57.517Z,1.88
2023-04-02T11:13:18.291Z,1.50
2023-04-02T11:16:21.782Z,2.17
2023-04-02T11:19:29.737Z,1.38
2023-04-02T11:22:32.329Z,1.42
2023-04-02T11:25:35.161Z,1.17
2023-04-02T11:28:38.071Z,1.20
2023-04-02T11:31:41.429Z,2.03
2023-04-02T11:34:44.152Z,1.40
2023-04-02T11:37:46.887Z,0.90
2023-04-02T11:40:57.180Z,1.20
2023-04-02T11:44:01.407Z,1.63
2023-04-02T11:47:23.513Z,1.10
2023-04-02T11:50:36.962Z,1.27
2023-04-02T11:53:42.853Z,0.90
2023-04-02T11:56:56.755Z,1.85
2023-04-02T12:00:08.770Z,1.60
2023-04-02T12:03:17.746Z,7.67
2023-04-02T12:06:32.535Z,1.30
2023-04-02T12:09:49.650Z,1.23
2023-04-02T12:12:52.248Z,1.95
2023-04-02T12:15:58.141Z,1.80
2023-04-02T12:19:01.324Z,1.30
2023-04-02T12:22:04.537Z,1.55
2023-04-02T12:25:20.113Z,1.40
2023-04-02T12:28:23.251Z,1.85
2023-04-02T12:31:27.247Z,1.83
2023-04-02T12:34:30.616Z,1.10
2023-04-02T12:37:33.080Z,0.85
2023-04-02T12:40:35.877Z,1.50
2023-04-02T12:43:40.105Z,1.40
2023-04-02T12:46:44.136Z,1.70
2023-04-02T12:49:47.457Z,1.57
2023-04-02T12:52:53.402Z,1.98
2023-04-02T12:55:56.452Z,1.38
2023-04-02T12:59:01.032Z,2.17
2023-04-02T13:02:18.617Z,1.30
2023-04-02T13:05:36.137Z,1.67
2023-04-02T13:08:42.799Z,1.60
2023-04-02T13:11:45.674Z,1.60
2023-04-02T13:14:56.114Z,1.50
2023-04-02T13:18:22.980Z,0.70
2023-04-02T13:21:30.016Z,0.80
2023-04-02T13:24:33.521Z,1.75
2023-04-02T13:27:36.074Z,0.60
2023-04-02T13:30:38.735Z,0.70
2023-04-02T13:33:41.488Z,1.57
2023-04-02T13:36:44.825Z,1.10
2023-04-02T13:39:48.236Z,0.45
2023-04-02T13:42:51.374Z,0.68
2023-04-02T13:45:58.381Z,1.00
2023-04-02T13:49:01.438Z,1.00
2023-04-02T13:52:05.310Z,1.13
2023-04-02T13:55:10.408Z,1.52
2023-04-02T13:58:14.071Z,1.00
2023-04-02T14:01:18.368Z,0.70
2023-04-02T14:04:27.590Z,0.97
2023-04-02T14:07:57.566Z,1.53
2023-04-02T14:11:01.033Z,0.80
2023-04-02T14:14:24.761Z,4.88
2023-04-02T14:17:43.606Z,1.05
2023-04-02T14:20:49.745Z,1.10
2023-04-02T14:24:01.192Z,4.47
2023-04-02T14:27:28.494Z,1.52
2023-04-02T14:30:58.819Z,4.63
2023-04-02T14:34:17.143Z,0.38
2023-04-02T14:37:27.216Z,1.37
2023-04-02T14:40:39.014Z,1.00
2023-04-02T14:44:03.193Z,0.90
2023-04-02T14:47:19.105Z,1.05
2023-04-02T14:50:29.660Z,1.35
2023-04-02T14:53:58.537Z,2.73
2023-04-02T14:57:23.107Z,1.70
2023-04-02T15:00:38.199Z,2.33
2023-04-02T15:03:53.950Z,1.70
2023-04-02T15:07:05.492Z,5.22
2023-04-02T15:10:28.876Z,4.53
2023-04-02T15:13:38.423Z,3.57
2023-04-02T15:16:41.650Z,1.98
2023-04-02T15:19:44.546Z,3.28
2023-04-02T15:23:22.245Z,4.25
2023-04-02T15:26:41.626Z,1.70
2023-04-02T15:29:59.745Z,2.10
2023-04-02T15:33:20.848Z,1.88
2023-04-02T15:36:35.440Z,5.53
2023-04-02T15:39:59.121Z,5.22
2023-04-02T15:43:23.502Z,4.27
2023-04-02T15:46:41.386Z,7.57
2023-04-02T15:50:02.014Z,8.95
2023-04-02T15:53:10.636Z,4.07
2023-04-02T15:56:28.101Z,3.42
2023-04-02T15:59:44.187Z,3.60
2023-04-02T16:03:06.198Z,3.90
2023-04-02T16:06:29.009Z,5.25
2023-04-02T16:09:47.891Z,6.10
2023-04-02T16:12:53.085Z,4.82
2023-04-02T16:16:01.156Z,4.67
2023-04-02T16:19:27.574Z,4.90
2023-04-02T16:22:33.833Z,6.03
2023-04-02T16:25:57.416Z,3.70
2023-04-02T16:29:24.217Z,4.93
2023-04-02T16:32:39.340Z,4.17
2023-04-02T16:36:02.820Z,6.80
2023-04-02T16:39:16.722Z,5.72
2023-04-02T16:42:57.160Z,5.65
2023-04-02T16:49:43.576Z,8.13
2023-04-02T16:52:57.112Z,5.67
2023-04-02T16:56:26.572Z,6.80
2023-04-02T16:59:45.713Z,6.55
2023-04-02T17:03:06.457Z,7.47
2023-04-02T17:06:20.078Z,8.13
2023-04-02T17:09:40.434Z,7.20
2023-04-02T17:12:51.934Z,6.35
2023-04-02T17:16:14.178Z,6.07
2023-04-02T17:19:19.408Z,4.32
2023-04-02T17:22:23.519Z,0.90
2023-04-02T17:25:31.637Z,1.20
2023-04-02T17:28:38.454Z,1.02
2023-04-02T17:31:43.796Z,4.75
2023-04-02T17:34:46.719Z,1.33
2023-04-02T17:37:57.146Z,1.50
2023-04-02T17:41:08.117Z,2.40
2023-04-02T17:44:24.249Z,1.90
2023-04-02T17:47:59.253Z,1.33
2023-04-02T17:51:30.387Z,2.65
2023-04-02T17:55:00.909Z,2.90
2023-04-02T17:58:22.537Z,3.20
2023-04-02T18:01:34.151Z,1.80
2023-04-02T18:05:16.377Z,2.85
2023-04-02T18:08:33.254Z,2.28
2023-04-02T18:12:06.889Z,1.83
2023-04-02T18:15:24.652Z,3.13
2023-04-02T18:19:03.639Z,3.95
2023-04-02T18:22:26.743Z,2.88
2023-04-02T18:25:45.952Z,3.08
2023-04-02T18:29:00.510Z,3.63
2023-04-02T18:32:12.010Z,1.53
2023-04-02T18:35:34.748Z,2.25
2023-04-02T18:38:47.481Z,3.03
2023-04-02T18:42:02.547Z,2.28
2023-04-02T18:45:25.084Z,4.73
2023-04-02T18:48:46.616Z,4.07
2023-04-02T18:51:55.100Z,3.90
2023-04-02T18:55:15.352Z,3.15
2023-04-02T18:58:27.076Z,3.53
2023-04-02T19:01:39.237Z,2.83
2023-04-02T19:04:47.781Z,4.40
2023-04-02T19:07:55.433Z,2.92
2023-04-02T19:11:01.915Z,3.45
2023-04-02T19:14:12.416Z,2.35
2023-04-02T19:17:37.169Z,3.73
2023-04-02T19:21:21.583Z,2.20
2023-04-02T19:24:33.827Z,3.50
2023-04-02T19:27:59.649Z,4.32
2023-04-02T19:31:11.856Z,2.10
2023-04-02T19:34:22.633Z,2.90
2023-04-02T19:37:36.494Z,5.30
2023-04-02T19:40:53.689Z,2.50
2023-04-02T19:43:57.004Z,2.50
2023-04-02T19:47:00.027Z,1.65
2023-04-02T19:50:04.122Z,2.00
2023-04-02T19:53:07.618Z,3.50
2023-04-02T19:56:11.632Z,3.10
2023-04-02T19:59:17.981Z,2.67
2023-04-02T20:02:21.790Z,2.00
2023-04-02T20:05:24.745Z,3.20
2023-04-02T20:08:28.680Z,6.30
2023-04-02T20:11:31.500Z,8.13
2023-04-02T20:14:34.208Z,22.75
2023-04-02T20:17:37.507Z,24.17
2023-04-02T20:20:40.502Z,6.30
2023-04-02T20:23:43.198Z,18.97
2023-04-02T20:26:47.886Z,3.97
2023-04-02T20:29:50.718Z,2.42
2023-04-02T20:32:55.370Z,2.33
2023-04-02T20:36:06.397Z,3.40
2023-04-02T20:39:10.805Z,2.07
2023-04-02T20:42:14.299Z,2.13
2023-04-02T20:45:17.204Z,2.03
2023-04-02T20:48:19.869Z,1.60
2023-04-02T20:51:22.451Z,2.37
2023-04-02T20:54:44.804Z,4.17
2023-04-02T20:57:47.598Z,8.95
2023-04-02T21:00:50.611Z,2.25
2023-04-02T21:03:58.287Z,0.95
2023-04-02T21:07:00.922Z,0.50
2023-04-02T21:10:04.229Z,0.50
2023-04-02T21:13:07.586Z,1.77
2023-04-02T21:16:14.949Z,1.25
2023-04-02T21:19:17.465Z,1.10
2023-04-02T21:22:20.088Z,0.63
2023-04-02T21:25:22.870Z,0.60
2023-04-02T21:28:26.356Z,1.40
2023-04-02T21:31:33.439Z,3.92
2023-04-02T21:34:35.963Z,3.53
2023-04-02T21:37:38.408Z,3.67
2023-04-02T21:40:41.422Z,4.53
2023-04-02T21:43:46.140Z,4.40
2023-04-02T21:46:49.864Z,3.85
2023-04-02T21:49:54.214Z,8.23
2023-04-02T21:52:56.806Z,5.77
2023-04-02T21:56:05.048Z,5.70
2023-04-02T21:59:09.521Z,3.13
2023-04-02T22:02:12.236Z,2.53
2023-04-02T22:05:14.762Z,2.50
2023-04-02T22:08:17.305Z,4.40
2023-04-02T22:11:22.889Z,4.50
2023-04-02T22:14:25.725Z,3.30
2023-04-02T22:17:28.380Z,3.53
2023-04-02T22:20:31.236Z,2.58
2023-04-02T22:23:34.886Z,2.10
2023-04-02T22:26:38.283Z,2.83
2023-04-02T22:29:41.172Z,2.95
2023-04-02T22:32:45.293Z,4.15
2023-04-02T22:35:52.237Z,3.42
2023-04-02T22:38:55.386Z,2.80
2023-04-02T22:41:57.830Z,5.10
2023-04-02T22:45:01.344Z,3.85
2023-04-02T22:48:04.479Z,2.95
2023-04-02T22:51:08.656Z,3.28
2023-04-02T22:54:11.324Z,4.60
2023-04-02T22:57:13.812Z,2.33
2023-04-02T23:00:17.579Z,3.47
2023-04-02T23:03:20.184Z,3.03
2023-04-02T23:06:23.713Z,3.45
2023-04-02T23:09:26.545Z,3.37
2023-04-02T23:12:29.693Z,3.57
2023-04-02T23:15:32.242Z,4.03
2023-04-02T23:18:35.759Z,4.65
2023-04-02T23:21:38.249Z,4.28
2023-04-02T23:24:40.930Z,3.50
2023-04-02T23:27:43.374Z,4.83
2023-04-02T23:30:45.823Z,4.45
2023-04-02T23:33:48.740Z,2.38
2023-04-02T23:36:51.343Z,3.80
2023-04-02T23:39:53.900Z,4.33
2023-04-02T23:42:56.467Z,6.40
2023-04-02T23:45:59.346Z,3.47
2023-04-02T23:49:03.627Z,4.80
2023-04-02T23:52:06.201Z,3.53
2023-04-02T23:55:09.181Z,4.50
2023-04-02T23:58:11.731Z,5.40
